Edmonton Namao Alta., Canada
Current Conditions -  °F | °C
As of 10:00 PM on Saturday 20 Dec 2014 (Local Time) from CYXD Reporting Station
Clear Clear  
Wind Chill: 20°   Ceiling: Unl
Heat Index: 28°   Visibility: 9mi
Dew Point: 19°   Wind: 9mph
Humidity: 69%   Direction: 140°SE
Pressure: 29.34"   Gusts: NA
Location:  53.61°N, 113.46°W
Report Text: CYXD 210500Z AUTO 14008KT 9SM CLR M02/M07 A2934 RMK SLP967
Loading
Personal Weather Stations






























Interactive Weather Map New forecast layout! Learn more

10-Day Weather Forecast

Advertisements
Track Severe Weather on mobile